Time;durP1;ratioP1;P1;durP2;ratioP2;P2;SDS_P1;SDS_P2;PMS_P1;PMS_P2;Temp;Humidity;BMP_temperature;BMP_pressure;BME280_temperature;BME280_humidity;BME280_pressure;Samples;Min_cycle;Max_cycle;Signal;HPM_P1;HPM_P2
2022/02/07 00:00:40;;;;;;;23.65;13.20;;;;;;;-2.16;68.67;93182.47;5090918;28;20413;-41
2022/02/07 00:05:33;;;;;;;16.13;8.00;;;;;;;-2.17;68.46;93176.34;5110982;28;20389;-41
2022/02/07 00:07:59;;;;;;;13.25;7.10;;;;;;;-2.07;68.61;93174.97;5110950;28;20024;-41
2022/02/07 00:10:26;;;;;;;18.02;8.23;;;;;;;-2.33;68.92;93174.91;5110835;28;20031;-41
2022/02/07 00:12:51;;;;;;;22.90;9.98;;;;;;;-2.49;70.19;93170.00;5110774;28;20489;-41
2022/02/07 00:15:18;;;;;;;40.05;18.30;;;;;;;-2.39;69.62;93170.66;5110706;28;20040;-41
2022/02/07 00:17:44;;;;;;;20.02;11.32;;;;;;;-2.60;70.48;93166.44;5110991;28;20035;-41
2022/02/07 00:20:17;;;;;;;27.10;13.85;;;;;;;-2.35;70.18;93171.19;5110948;28;20023;-41
2022/02/07 00:22:43;;;;;;;31.83;16.00;;;;;;;-2.43;70.27;93162.00;5110661;28;20160;-42
2022/02/07 00:25:08;;;;;;;34.72;18.45;;;;;;;-2.30;70.14;93152.31;5104432;28;20031;-41
2022/02/07 00:27:35;;;;;;;36.90;20.75;;;;;;;-2.13;69.81;93149.81;5090297;28;20506;-41
2022/02/07 00:30:01;;;;;;;39.63;21.95;;;;;;;-2.07;68.68;93147.16;5090275;28;20024;-41
2022/02/07 00:32:27;;;;;;;41.92;24.58;;;;;;;-2.17;68.92;93138.47;5090369;28;20039;-41
2022/02/07 00:34:52;;;;;;;40.40;20.70;;;;;;;-2.14;69.30;93145.63;5100495;28;20031;-42
2022/02/07 00:37:18;;;;;;;40.30;21.70;;;;;;;-2.56;70.76;93142.66;5092152;28;20032;-42
2022/02/07 00:39:49;;;;;;;27.08;15.98;;;;;;;-2.35;70.48;93133.34;5090351;28;20092;-42
2022/02/07 00:42:40;;;;;;;36.00;18.65;;;;;;;-2.36;70.87;93123.75;5090190;28;20518;-41
2022/02/07 00:45:06;;;;;;;44.40;21.58;;;;;;;-2.26;70.49;93118.94;5089791;28;20068;-41
2022/02/07 00:47:31;;;;;;;37.88;19.98;;;;;;;-2.50;70.88;93111.03;5090129;28;20028;-41
2022/02/07 00:49:57;;;;;;;44.22;23.02;;;;;;;-2.50;71.29;93100.97;5093823;28;20031;-41
2022/02/07 00:52:23;;;;;;;39.50;22.13;;;;;;;-2.69;71.98;93099.00;5108520;28;20035;-41
2022/02/07 00:54:50;;;;;;;27.60;16.67;;;;;;;-2.72;72.86;93099.94;5097213;28;20402;-41
2022/02/07 00:57:15;;;;;;;34.00;17.77;;;;;;;-2.51;72.36;93082.50;5098847;28;20031;-42
2022/02/07 00:59:40;;;;;;;34.05;17.33;;;;;;;-2.92;72.35;93067.53;5105391;28;20394;-41
2022/02/07 01:02:06;;;;;;;26.52;15.98;;;;;;;-2.45;71.85;93075.22;5113058;28;20385;-41
2022/02/07 01:04:31;;;;;;;33.97;17.48;;;;;;;-2.78;71.05;93070.16;5100737;27;20031;-41
2022/02/07 01:06:57;;;;;;;31.17;17.55;;;;;;;-2.64;71.47;93074.03;5094220;28;20028;-42
2022/02/07 01:09:32;;;;;;;33.30;17.80;;;;;;;-2.63;70.88;93059.28;5094092;28;20466;-41
2022/02/07 01:14:38;;;;;;;34.38;19.23;;;;;;;-2.52;69.65;93048.59;5114454;28;20110;-40
2022/02/07 01:47:04;;;;;;;32.20;16.42;;;;;;;-2.52;69.70;93026.97;5093544;28;20039;-41
2022/02/07 01:52:20;;;;;;;40.30;20.15;;;;;;;-2.73;71.90;93028.94;5092188;28;20031;-41
2022/02/07 01:54:45;;;;;;;34.08;20.58;;;;;;;-2.79;71.06;93014.63;5091337;28;20494;-41
2022/02/07 01:57:13;;;;;;;46.78;25.38;;;;;;;-2.74;70.84;93010.53;5093110;28;20024;-39
2022/02/07 01:59:39;;;;;;;60.10;28.75;;;;;;;-2.66;70.68;92998.81;5093030;28;20497;-42
2022/02/07 02:02:05;;;;;;;60.30;32.88;;;;;;;-2.56;70.09;92989.38;5093179;28;20132;-41
2022/02/07 02:04:31;;;;;;;72.20;33.30;;;;;;;-2.66;70.54;92977.22;5093125;28;20028;-40
2022/02/07 02:06:56;;;;;;;72.10;35.00;;;;;;;-2.64;70.27;92980.19;5093195;28;20477;-41
2022/02/07 02:09:22;;;;;;;69.53;33.92;;;;;;;-2.53;70.60;92971.44;5092765;28;20506;-41
2022/02/07 02:11:48;;;;;;;66.45;32.15;;;;;;;-2.36;70.10;92966.97;5093130;28;20046;-41
2022/02/07 02:14:59;;;;;;;54.97;27.38;;;;;;;-2.42;70.53;92960.75;5093790;28;20489;-41
2022/02/07 02:36:18;;;;;;;24.95;15.55;;;;;;;-2.74;72.41;92940.28;5103092;28;20043;-42
2022/02/07 02:46:30;;;;;;;33.70;18.67;;;;;;;-3.15;73.51;92924.13;5111459;28;20023;-42
2022/02/07 02:49:01;;;;;;;27.95;14.77;;;;;;;-3.04;73.32;92928.16;5112510;28;20386;-42
2022/02/07 02:51:26;;;;;;;27.15;16.55;;;;;;;-2.92;72.00;92921.69;5111630;28;20034;-42
2022/02/07 02:53:52;;;;;;;29.48;15.45;;;;;;;-2.82;72.65;92918.38;5112530;28;20055;-42
2022/02/07 02:56:17;;;;;;;33.40;17.67;;;;;;;-2.98;71.83;92929.72;5112314;27;20024;-42
2022/02/07 02:58:43;;;;;;;29.23;17.73;;;;;;;-3.00;72.64;92939.50;5112060;28;20070;-42
2022/02/07 03:01:08;;;;;;;27.65;14.63;;;;;;;-3.02;72.03;92934.59;5112331;28;20030;-42
2022/02/07 03:03:34;;;;;;;27.75;16.25;;;;;;;-3.16;71.29;92943.50;5112457;28;20073;-41
2022/02/07 03:05:59;;;;;;;38.15;19.23;;;;;;;-3.37;72.47;92928.53;5112553;28;20440;-41
2022/02/07 03:08:25;;;;;;;36.45;19.10;;;;;;;-3.33;73.33;92929.06;5112109;28;20030;-42
2022/02/07 03:18:32;;;;;;;40.15;17.63;;;;;;;-3.36;73.72;92909.19;5091765;28;20089;-41
2022/02/07 03:20:58;;;;;;;32.75;17.63;;;;;;;-3.19;73.41;92904.72;5091799;28;20032;-42
2022/02/07 03:23:24;;;;;;;34.45;16.60;;;;;;;-3.20;73.69;92916.72;5091518;28;20112;-41
2022/02/07 03:25:50;;;;;;;36.33;18.50;;;;;;;-2.96;72.88;92910.34;5091749;28;20169;-41
2022/02/07 03:28:17;;;;;;;32.13;18.60;;;;;;;-2.89;71.10;92897.16;5091672;28;20035;-41
2022/02/07 03:30:42;;;;;;;41.53;21.05;;;;;;;-2.90;71.74;92895.66;5091237;28;20048;-41
2022/02/07 03:33:08;;;;;;;36.58;20.35;;;;;;;-3.24;72.72;92894.59;5091659;28;20112;-41
2022/02/07 03:35:34;;;;;;;41.53;21.77;;;;;;;-3.11;72.69;92905.78;5091231;28;20104;-41
2022/02/07 03:38:00;;;;;;;32.90;19.23;;;;;;;-3.14;72.51;92895.19;5090729;28;20517;-41
2022/02/07 03:40:26;;;;;;;46.92;24.83;;;;;;;-3.37;71.94;92904.22;5091268;28;20089;-41
2022/02/07 03:42:51;;;;;;;51.70;26.17;;;;;;;-3.53;71.95;92910.19;5091386;28;20556;-40
2022/02/07 03:45:17;;;;;;;52.42;27.15;;;;;;;-3.53;72.66;92924.41;5091244;28;20051;-41
2022/02/07 03:47:42;;;;;;;35.38;17.90;;;;;;;-3.83;72.68;92909.53;5091321;28;20035;-41
2022/02/07 03:50:09;;;;;;;49.50;26.13;;;;;;;-3.92;73.95;92896.19;5091286;28;20032;-41
2022/02/07 03:52:35;;;;;;;29.27;14.65;;;;;;;-4.17;74.78;92888.69;5091184;28;20146;-41
2022/02/07 03:55:00;;;;;;;21.45;14.00;;;;;;;-4.05;74.65;92884.97;5091019;28;20496;-41
2022/02/07 03:57:25;;;;;;;23.00;12.60;;;;;;;-3.90;75.22;92872.19;5091063;28;20031;-41
2022/02/07 03:59:51;;;;;;;18.98;10.77;;;;;;;-3.68;74.41;92872.44;5090770;28;20028;-40
2022/02/07 04:02:17;;;;;;;27.42;11.82;;;;;;;-3.59;75.49;92866.94;5090688;28;20031;-41
2022/02/07 04:04:46;;;;;;;27.08;15.68;;;;;;;-3.44;74.52;92870.31;5090973;28;20035;-41
2022/02/07 04:07:13;;;;;;;;;;;;;;;-3.28;73.51;92861.66;5091299;28;20063;-41
2022/02/07 04:09:44;;;;;;;50.35;25.45;;;;;;;-3.51;73.03;92864.59;5090861;28;19908;-41
2022/02/07 04:12:16;;;;;;;56.80;27.23;;;;;;;-3.58;73.48;92868.44;5091001;28;20024;-41
2022/02/07 04:14:42;;;;;;;55.85;26.70;;;;;;;-3.42;72.42;92854.38;5089230;28;20457;-41
2022/02/07 04:17:11;;;;;;;72.63;38.40;;;;;;;-3.67;73.74;92846.22;5090757;28;20072;-41
2022/02/07 04:19:36;;;;;;;74.65;34.90;;;;;;;-3.48;72.76;92858.22;5090760;28;20028;-41
2022/02/07 04:22:05;;;;;;;52.30;27.40;;;;;;;-3.57;73.39;92858.38;5090707;28;20032;-41
2022/02/07 04:24:31;;;;;;;46.40;23.98;;;;;;;-3.45;73.23;92863.44;5090616;28;20024;-41
2022/02/07 04:26:57;;;;;;;56.97;31.02;;;;;;;-3.49;74.25;92852.09;5090434;28;20108;-41
2022/02/07 04:29:22;;;;;;;52.40;31.48;;;;;;;-3.74;74.69;92857.41;5089464;28;20023;-41
2022/02/07 04:31:48;;;;;;;61.38;30.35;;;;;;;-3.81;74.52;92850.47;5090628;28;20557;-41
2022/02/07 04:34:13;;;;;;;58.60;31.92;;;;;;;-3.66;74.37;92858.50;5090140;28;20023;-41
2022/02/07 04:36:44;;;;;;;62.03;32.60;;;;;;;-3.75;74.83;92851.31;5089463;28;20103;-41
2022/02/07 04:39:10;;;;;;;58.10;31.00;;;;;;;-3.58;74.28;92859.59;5090107;28;20277;-42
2022/02/07 04:41:35;;;;;;;56.08;28.85;;;;;;;-3.51;73.67;92854.50;5090161;28;20486;-41
2022/02/07 04:44:07;;;;;;;64.05;32.22;;;;;;;-3.89;74.81;92841.31;5090482;28;20021;-41
2022/02/07 04:59:20;;;;;;;66.68;32.90;;;;;;;-3.52;73.71;92846.91;5090195;28;20085;-41
2022/02/07 05:01:56;;;;;;;62.75;34.08;;;;;;;-3.77;74.39;92842.94;5090249;28;20024;-42
2022/02/07 05:04:33;;;;;;;60.33;28.73;;;;;;;-3.75;74.37;92843.22;5089910;28;20032;-41
2022/02/07 05:15:11;;;;;;;40.60;20.38;;;;;;;-3.46;73.20;92829.56;5110643;28;20518;-41
2022/02/07 05:17:38;;;;;;;50.85;24.58;;;;;;;-3.49;73.32;92833.22;5110172;28;20059;-42
2022/02/07 05:20:08;;;;;;;42.38;23.67;;;;;;;-3.33;74.16;92815.69;5110099;28;20023;-42
2022/02/07 05:22:34;;;;;;;43.55;24.25;;;;;;;-3.34;74.48;92806.88;5110281;28;20031;-41
2022/02/07 05:25:00;;;;;;;43.20;23.00;;;;;;;-3.34;73.58;92804.19;5110521;28;20051;-42
2022/02/07 05:27:26;;;;;;;50.80;24.30;;;;;;;-3.23;73.46;92809.66;5110053;28;20115;-42
2022/02/07 05:29:51;;;;;;;48.85;24.48;;;;;;;-3.34;74.03;92827.72;5110488;28;20028;-42
2022/02/07 05:32:17;;;;;;;51.47;27.02;;;;;;;-3.41;74.24;92836.22;5110385;28;20027;-42
2022/02/07 05:34:43;;;;;;;57.70;32.17;;;;;;;-3.14;72.85;92846.59;5109915;28;20019;-41
2022/02/07 05:37:12;;;;;;;59.53;27.27;;;;;;;-3.27;72.40;92855.03;5096599;28;20148;-41
2022/02/07 05:39:38;;;;;;;76.85;33.83;;;;;;;-3.39;73.40;92868.88;5089811;28;20031;-41
2022/02/07 05:42:06;;;;;;;54.10;27.52;;;;;;;-3.56;74.49;92857.91;5089916;28;20073;-41
2022/02/07 05:44:32;;;;;;;76.95;40.85;;;;;;;-3.19;73.89;92864.22;5089520;28;20515;-41
2022/02/07 05:46:58;;;;;;;58.25;31.77;;;;;;;-3.27;75.10;92863.13;5089599;28;20039;-41
2022/02/07 05:49:24;;;;;;;100.22;49.53;;;;;;;-3.52;75.49;92852.28;5092446;28;20048;-41
2022/02/07 05:51:51;;;;;;;85.88;41.58;;;;;;;-3.16;75.58;92865.94;5093816;28;20060;-42
2022/02/07 05:54:16;;;;;;;65.40;32.58;;;;;;;-3.18;75.24;92860.28;5112112;28;20507;-41
2022/02/07 05:56:42;;;;;;;67.40;37.00;;;;;;;-3.38;75.91;92846.81;5113293;28;20028;-42
2022/02/07 05:59:07;;;;;;;56.88;30.50;;;;;;;-3.08;76.08;92861.63;5096456;28;20035;-41
2022/02/07 06:01:33;;;;;;;74.22;34.40;;;;;;;-2.95;76.17;92865.91;5093283;28;20089;-41
2022/02/07 06:03:58;;;;;;;71.20;34.55;;;;;;;-2.72;76.39;92873.75;5109675;28;20043;-41
2022/02/07 06:06:24;;;;;;;70.68;35.47;;;;;;;-2.55;75.01;92882.00;5109254;28;20462;-41
2022/02/07 06:08:49;;;;;;;114.43;55.38;;;;;;;-2.57;74.57;92884.44;5112867;28;20059;-42
2022/02/07 06:11:15;;;;;;;108.80;51.35;;;;;;;-2.43;72.62;92880.88;5112555;28;20457;-41
2022/02/07 06:13:40;;;;;;;132.77;63.80;;;;;;;-2.33;71.27;92874.06;5113106;28;20563;-41
2022/02/07 06:16:06;;;;;;;92.88;46.67;;;;;;;-2.11;71.60;92881.59;5110459;28;20035;-41
2022/02/07 06:18:32;;;;;;;114.10;53.22;;;;;;;-2.04;71.36;92859.53;5113251;28;20504;-42
2022/02/07 06:21:03;;;;;;;117.20;57.50;;;;;;;-1.89;72.32;92866.28;5112142;28;20020;-41
2022/02/07 06:23:29;;;;;;;132.00;65.30;;;;;;;-1.98;72.74;92857.59;5112254;28;20023;-41
2022/02/07 06:25:55;;;;;;;212.07;103.05;;;;;;;-2.06;73.51;92859.28;5092752;28;20445;-41
2022/02/07 06:28:21;;;;;;;95.38;50.60;;;;;;;-1.88;73.44;92837.97;5092517;28;20516;-41
2022/02/07 06:30:46;;;;;;;179.07;88.70;;;;;;;-1.62;73.56;92833.19;5092628;28;20024;-41
2022/02/07 06:33:12;;;;;;;142.85;69.15;;;;;;;-1.46;73.72;92845.31;5092381;28;20550;-41
2022/02/07 06:35:37;;;;;;;200.07;92.85;;;;;;;-1.30;73.15;92843.91;5091923;28;20020;-41
2022/02/07 06:38:03;;;;;;;174.07;84.68;;;;;;;-1.02;72.15;92861.72;5091019;28;20093;-42
2022/02/07 06:40:28;;;;;;;194.63;91.80;;;;;;;-0.87;70.91;92842.56;5090580;28;20474;-41
2022/02/07 06:42:54;;;;;;;162.43;78.90;;;;;;;-0.65;70.51;92834.44;5090758;28;20107;-41
2022/02/07 06:45:19;;;;;;;166.98;85.30;;;;;;;-0.62;69.75;92830.00;5091085;28;20040;-41
2022/02/07 06:47:45;;;;;;;172.38;87.55;;;;;;;-0.35;70.05;92835.47;5090945;28;20101;-42
2022/02/07 06:50:10;;;;;;;337.70;138.50;;;;;;;-0.12;69.88;92828.78;5091046;28;20040;-41
2022/02/07 06:52:36;;;;;;;282.20;116.70;;;;;;;-0.07;69.15;92828.03;5090076;28;20051;-41
2022/02/07 06:55:01;;;;;;;203.88;95.72;;;;;;;0.04;69.25;92829.25;5092318;28;20028;-41
2022/02/07 06:57:27;;;;;;;131.38;65.88;;;;;;;0.27;68.43;92827.94;5092189;28;20126;-42
2022/02/07 06:59:53;;;;;;;148.18;77.78;;;;;;;0.48;68.41;92834.56;5105888;28;20108;-41
2022/02/07 07:02:25;;;;;;;103.68;53.42;;;;;;;0.70;67.30;92823.63;5112462;28;20019;-41
2022/02/07 07:04:51;;;;;;;128.80;62.10;;;;;;;0.88;67.38;92814.91;5112468;28;20102;-42
2022/02/07 07:07:18;;;;;;;155.15;74.75;;;;;;;0.82;67.23;92794.44;5112403;28;20483;-41
2022/02/07 07:09:45;;;;;;;167.05;81.78;;;;;;;0.87;67.89;92807.25;5111958;28;20051;-41
2022/02/07 07:12:11;;;;;;;157.93;80.40;;;;;;;0.98;66.93;92790.88;5112354;28;20035;-41
2022/02/07 07:14:46;;;;;;;476.42;200.85;;;;;;;1.02;65.66;92781.19;5112083;28;20416;-41
2022/02/07 07:17:12;;;;;;;171.70;75.80;;;;;;;0.76;66.59;92778.13;5112362;28;20019;-41
2022/02/07 07:19:38;;;;;;;155.93;75.93;;;;;;;0.78;67.41;92781.84;5112019;28;20389;-41
2022/02/07 07:22:05;;;;;;;166.82;84.57;;;;;;;0.51;68.22;92780.00;5112075;28;20492;-41
2022/02/07 07:24:31;;;;;;;144.93;79.07;;;;;;;0.07;70.94;92779.38;5111727;28;20031;-41
2022/02/07 07:26:56;;;;;;;130.50;68.53;;;;;;;0.29;71.04;92771.19;5111944;28;20023;-41
2022/02/07 07:29:27;;;;;;;108.68;60.78;;;;;;;0.50;71.15;92775.78;5111711;28;20024;-41
2022/02/07 07:31:59;;;;;;;93.40;54.10;;;;;;;1.42;71.22;92761.41;5111522;28;20035;-41
2022/02/07 07:34:24;;;;;;;137.65;77.13;;;;;;;2.90;65.94;92757.59;5111915;28;20055;-41
2022/02/07 07:36:50;;;;;;;148.27;84.30;;;;;;;3.87;61.50;92748.94;5101057;28;20024;-41
2022/02/07 07:39:17;;;;;;;103.68;59.50;;;;;;;4.39;60.64;92751.00;5090798;28;20418;-42
2022/02/07 07:41:45;;;;;;;86.13;53.05;;;;;;;5.23;57.91;92756.22;5090994;28;20020;-41
2022/02/07 07:44:13;;;;;;;99.57;61.47;;;;;;;5.76;56.69;92745.81;5091392;28;20105;-41
2022/02/07 07:46:38;;;;;;;104.00;62.83;;;;;;;6.80;54.70;92742.34;5090797;28;20024;-41
2022/02/07 07:49:10;;;;;;;55.97;37.22;;;;;;;8.48;50.09;92738.66;5091192;28;20061;-41
2022/02/07 07:54:29;;;;;;;55.60;35.43;;;;;;;10.73;43.06;92721.44;5090959;28;20467;-42
2022/02/07 08:02:26;;;;;;;96.88;56.83;;;;;;;12.08;39.61;92702.47;5090964;28;20093;-42
2022/02/07 08:04:53;;;;;;;113.13;65.70;;;;;;;11.26;41.46;92680.19;5090902;28;20085;-42
2022/02/07 08:07:23;;;;;;;114.13;63.90;;;;;;;9.39;45.28;92671.00;5090963;28;20078;-41
2022/02/07 08:12:16;;;;;;;58.80;38.13;;;;;;;8.79;47.38;92660.97;5110550;27;20024;-42
2022/02/07 08:14:41;;;;;;;62.97;35.25;;;;;;;8.43;48.43;92663.31;5111038;28;20393;-42
2022/02/07 08:17:07;;;;;;;65.53;43.45;;;;;;;7.96;49.45;92674.16;5110689;28;20080;-42
2022/02/07 08:19:33;;;;;;;92.05;51.78;;;;;;;7.86;50.38;92676.72;5110613;28;20024;-41
2022/02/07 08:22:00;;;;;;;110.97;59.60;;;;;;;6.81;53.53;92661.53;5110720;28;20575;-42
2022/02/07 08:24:26;;;;;;;102.85;59.47;;;;;;;6.39;55.99;92668.44;5110982;28;20024;-42
2022/02/07 08:26:54;;;;;;;73.13;42.08;;;;;;;6.26;57.51;92674.03;5110855;28;20041;-41
2022/02/07 08:29:19;;;;;;;52.85;28.60;;;;;;;6.45;57.63;92690.25;5110865;28;20092;-42
2022/02/07 08:31:45;;;;;;;73.80;39.70;;;;;;;6.82;56.96;92681.47;5110779;28;20480;-42
2022/02/07 08:34:10;;;;;;;41.60;24.00;;;;;;;6.65;56.58;92683.94;5110606;28;20046;-41
2022/02/07 08:36:36;;;;;;;26.23;16.13;;;;;;;6.52;56.38;92665.59;5101693;28;20024;-41
2022/02/07 08:39:04;;;;;;;29.77;16.25;;;;;;;6.44;56.70;92672.31;5090054;28;20040;-41
2022/02/07 08:41:31;;;;;;;;;;;;;;;5.55;59.72;92668.41;5090675;28;20426;-41
2022/02/07 08:43:57;;;;;;;53.40;29.10;;;;;;;5.60;60.34;92670.28;5090386;28;19915;-42
2022/02/07 08:46:22;;;;;;;42.38;26.92;;;;;;;5.89;60.04;92661.56;5090199;28;20568;-42
2022/02/07 08:48:49;;;;;;;56.90;34.28;;;;;;;5.94;59.17;92649.00;5090050;28;20135;-42
2022/02/07 08:51:15;;;;;;;47.08;30.08;;;;;;;6.00;59.20;92644.84;5094974;28;20028;-42
2022/02/07 08:53:44;;;;;;;61.20;42.08;;;;;;;5.79;59.90;92608.53;5110739;28;20030;-41
2022/02/07 08:56:09;;;;;;;59.00;33.70;;;;;;;6.19;59.67;92617.19;5110709;28;20054;-42
2022/02/07 08:58:38;;;;;;;41.40;23.77;;;;;;;6.23;59.37;92611.34;5110626;28;20500;-41
2022/02/07 09:01:20;;;;;;;36.47;24.35;;;;;;;6.33;58.85;92612.31;5110709;28;20051;-41
2022/02/07 09:04:18;;;;;;;37.90;23.70;;;;;;;6.51;58.67;92620.28;5110514;28;20096;-41
2022/02/07 09:06:55;;;;;;;35.90;23.45;;;;;;;6.57;58.24;92628.31;5110034;28;20031;-42
2022/02/07 09:09:21;;;;;;;40.70;24.45;;;;;;;6.23;58.93;92636.03;5110539;28;20482;-42
2022/02/07 09:11:47;;;;;;;31.73;22.23;;;;;;;6.29;59.04;92622.91;5110405;28;20032;-42
2022/02/07 09:14:19;;;;;;;38.67;22.80;;;;;;;6.08;59.33;92612.75;5110166;28;20050;-41
2022/02/07 09:16:45;;;;;;;32.70;23.23;;;;;;;6.31;58.89;92601.91;5110205;28;20024;-41
2022/02/07 09:19:11;;;;;;;33.22;21.73;;;;;;;6.53;58.97;92601.25;5110010;28;20039;-42
2022/02/07 09:21:37;;;;;;;32.33;22.15;;;;;;;6.74;59.15;92618.34;5109597;28;20048;-41
2022/02/07 09:24:03;;;;;;;32.88;22.33;;;;;;;6.97;58.70;92625.91;5113779;28;20031;-43
2022/02/07 09:26:29;;;;;;;35.97;25.20;;;;;;;7.14;57.77;92612.41;5114000;28;20042;-42
2022/02/07 09:28:55;;;;;;;36.92;23.35;;;;;;;7.30;58.02;92616.59;5114261;28;20031;-43
2022/02/07 09:31:23;;;;;;;35.95;22.55;;;;;;;7.43;57.19;92608.94;5114349;28;20530;-42
2022/02/07 09:33:50;;;;;;;33.10;22.98;;;;;;;7.63;56.98;92605.28;5114162;27;20402;-43
2022/02/07 09:36:16;;;;;;;35.38;22.00;;;;;;;7.91;56.94;92607.09;5108367;28;20464;-43
2022/02/07 09:38:43;;;;;;;35.50;22.80;;;;;;;8.26;55.83;92610.91;5093175;28;20056;-41
2022/02/07 09:41:10;;;;;;;45.05;28.73;;;;;;;8.68;54.24;92595.38;5093318;28;20024;-42
2022/02/07 09:43:42;;;;;;;42.63;27.45;;;;;;;9.23;53.38;92592.47;5093501;28;20024;-41
2022/02/07 09:46:12;;;;;;;38.53;24.67;;;;;;;9.77;51.70;92563.97;5093241;28;20020;-42
2022/02/07 09:48:39;;;;;;;28.58;19.65;;;;;;;10.65;49.51;92586.97;5107487;28;20030;-42
2022/02/07 09:51:09;;;;;;;43.38;27.30;;;;;;;11.08;47.99;92585.53;5113854;28;20020;-42
2022/02/07 09:53:35;;;;;;;71.28;43.47;;;;;;;11.48;47.76;92581.69;5113426;28;20076;-42
2022/02/07 09:56:02;;;;;;;59.08;37.58;;;;;;;12.05;45.97;92570.81;5101548;28;20103;-42
2022/02/07 09:58:30;;;;;;;51.75;32.25;;;;;;;12.52;45.32;92561.09;5112786;28;20407;-42
2022/02/07 10:01:00;;;;;;;51.15;32.63;;;;;;;13.17;42.83;92545.00;5101467;28;20016;-42
2022/02/07 10:03:32;;;;;;;53.75;33.83;;;;;;;13.54;41.89;92551.75;5104826;28;20031;-42
2022/02/07 10:06:09;;;;;;;39.13;27.40;;;;;;;13.85;41.05;92537.91;5111918;28;20024;-42
2022/02/07 10:18:55;;;;;;;84.40;53.72;;;;;;;12.09;43.63;92488.09;5111760;28;20020;-42
2022/02/07 10:37:55;;;;;;;31.00;20.23;;;;;;;13.78;40.89;92450.03;5096267;28;20044;-42
2022/02/07 10:46:13;;;;;;;7.35;3.17;;;;;;;12.84;38.72;92445.03;5092549;28;20122;-42
2022/02/07 10:48:54;;;;;;;7.28;4.63;;;;;;;12.55;39.20;92440.88;5092393;28;20032;-42
2022/02/07 10:51:22;;;;;;;6.90;3.00;;;;;;;12.45;38.63;92431.88;5092243;28;20512;-42
2022/02/07 10:53:50;;;;;;;7.55;4.15;;;;;;;11.98;39.77;92433.34;5092484;28;20056;-42
2022/02/07 10:56:18;;;;;;;14.35;7.25;;;;;;;12.00;39.63;92425.19;5092105;28;20566;-42
2022/02/07 10:58:45;;;;;;;5.72;3.90;;;;;;;11.65;40.04;92405.34;5092317;28;20036;-42
2022/02/07 11:01:40;;;;;;;4.85;3.17;;;;;;;11.39;41.37;92417.97;5092204;28;20032;-41
2022/02/07 11:04:12;;;;;;;5.40;2.90;;;;;;;11.04;41.87;92402.94;5092255;28;20024;-42
2022/02/07 11:06:39;;;;;;;9.07;4.90;;;;;;;11.00;41.64;92397.06;5091759;28;20031;-41
2022/02/07 11:09:11;;;;;;;8.68;3.55;;;;;;;10.84;42.45;92395.16;5098574;28;20028;-41
2022/02/07 11:14:44;;;;;;;3.00;2.20;;;;;;;10.88;41.37;92387.91;5112160;28;20023;-41
2022/02/07 11:25:00;;;;;;;3.40;2.72;;;;;;;10.74;42.04;92362.00;5111913;28;20034;-41
2022/02/07 11:27:29;;;;;;;5.95;2.80;;;;;;;10.60;42.21;92358.88;5111893;28;20028;-41
2022/02/07 11:29:55;;;;;;;9.65;4.50;;;;;;;10.56;42.46;92349.56;5112233;28;20047;-41
2022/02/07 11:32:45;;;;;;;3.92;2.67;;;;;;;10.38;43.58;92342.66;5110473;28;20027;-42
2022/02/07 11:35:19;;;;;;;3.47;2.30;;;;;;;10.23;42.30;92351.16;5090831;28;20040;-42
2022/02/07 11:38:01;;;;;;;5.68;3.40;;;;;;;10.17;43.96;92358.97;5105865;28;20533;-41
2022/02/07 11:40:34;;;;;;;5.70;2.40;;;;;;;9.95;43.59;92355.19;5108704;28;20106;-40
2022/02/07 11:43:20;;;;;;;3.55;2.50;;;;;;;9.57;44.15;92354.91;5107016;28;20023;-42
2022/02/07 11:45:49;;;;;;;4.13;2.90;;;;;;;9.48;45.50;92350.78;5105885;28;20575;-42
2022/02/07 11:48:18;;;;;;;3.70;2.30;;;;;;;9.42;45.03;92344.78;5106476;28;20515;-41
2022/02/07 11:50:44;;;;;;;7.20;2.93;;;;;;;9.43;45.87;92354.50;5108472;28;20031;-41
2022/02/07 11:53:11;;;;;;;6.70;2.47;;;;;;;9.18;44.93;92325.59;5108109;28;20030;-43
2022/02/07 11:55:49;;;;;;;5.75;2.63;;;;;;;9.36;45.33;92338.78;5101588;28;20032;-43
2022/02/07 11:58:24;;;;;;;6.17;2.60;;;;;;;9.29;45.57;92338.88;5088008;28;20032;-43
2022/02/07 12:00:56;;;;;;;8.27;2.83;;;;;;;9.28;47.24;92340.91;5087463;28;20058;-40
2022/02/07 12:03:22;;;;;;;4.38;2.67;;;;;;;9.18;46.87;92336.59;5087941;28;20476;-43
2022/02/07 12:05:51;;;;;;;10.70;2.83;;;;;;;9.09;46.55;92326.97;5087860;28;20047;-42
2022/02/07 12:08:25;;;;;;;6.40;3.60;;;;;;;9.17;46.71;92324.84;5087461;28;20028;-43
2022/02/07 12:11:02;;;;;;;12.95;4.32;;;;;;;9.20;47.06;92320.25;5087361;28;20020;-43
2022/02/07 12:13:28;;;;;;;13.02;6.35;;;;;;;9.07;47.25;92321.31;5087133;28;20771;-43
2022/02/07 12:15:56;;;;;;;7.68;3.35;;;;;;;9.04;46.84;92317.66;5087649;28;20023;-42
2022/02/07 12:18:26;;;;;;;4.65;1.98;;;;;;;9.04;46.37;92303.88;5087835;28;20028;-42
2022/02/07 12:20:53;;;;;;;5.85;2.88;;;;;;;8.89;47.59;92290.28;5087614;28;20028;-42
2022/02/07 12:23:31;;;;;;;10.77;5.97;;;;;;;8.93;47.55;92292.63;5095254;28;20490;-42
2022/02/07 12:26:08;;;;;;;31.40;7.38;;;;;;;8.98;47.80;92292.38;5107437;28;20031;-42
2022/02/07 12:31:18;;;;;;;5.13;3.88;;;;;;;8.35;48.17;92250.06;5108090;28;20027;-42
2022/02/07 12:34:16;;;;;;;4.60;2.72;;;;;;;8.70;48.35;92298.34;5107671;28;20049;-41
2022/02/07 12:36:41;;;;;;;4.53;2.78;;;;;;;8.69;48.93;92296.16;5097068;28;20054;-42
2022/02/07 12:39:15;;;;;;;5.97;2.90;;;;;;;8.66;49.33;92294.53;5107246;28;20055;-43
2022/02/07 12:41:41;;;;;;;6.75;2.40;;;;;;;8.68;47.92;92287.19;5107635;28;20512;-42
2022/02/07 12:44:08;;;;;;;6.72;3.70;;;;;;;8.79;49.23;92294.94;5107685;28;20093;-42
2022/02/07 12:46:35;;;;;;;9.32;5.05;;;;;;;8.76;48.59;92293.34;5097692;28;20032;-42
2022/02/07 12:49:08;;;;;;;4.93;3.00;;;;;;;8.67;49.15;92288.47;5097445;28;20027;-42
2022/02/07 12:51:42;;;;;;;4.60;2.83;;;;;;;8.72;49.36;92287.50;5095470;28;20047;-41
2022/02/07 12:54:09;;;;;;;7.55;3.80;;;;;;;8.69;49.23;92282.38;5095199;28;20481;-42
2022/02/07 12:56:36;;;;;;;9.73;4.60;;;;;;;8.83;49.56;92287.03;5097553;28;20055;-41
2022/02/07 12:59:03;;;;;;;6.50;4.00;;;;;;;8.81;49.64;92289.63;5101274;28;20035;-41
2022/02/07 13:01:31;;;;;;;11.05;8.88;;;;;;;8.79;50.02;92297.69;5099059;28;20035;-42
2022/02/07 13:03:58;;;;;;;6.13;3.25;;;;;;;8.65;50.64;92298.56;5100595;28;20055;-41
2022/02/07 13:06:29;;;;;;;7.80;3.60;;;;;;;8.65;51.11;92299.31;5101300;28;20486;-42
2022/02/07 13:08:57;;;;;;;5.30;3.63;;;;;;;8.54;51.37;92297.03;5099246;28;20417;-40
2022/02/07 13:11:26;;;;;;;6.60;4.85;;;;;;;8.69;51.88;92310.63;5099631;28;20023;-42
2022/02/07 13:13:53;;;;;;;13.57;5.50;;;;;;;8.83;52.34;92309.06;5106975;28;20035;-42
2022/02/07 13:16:20;;;;;;;11.95;6.13;;;;;;;8.58;55.60;92313.84;5099056;28;20514;-42
2022/02/07 13:18:45;;;;;;;4.05;2.85;;;;;;;8.35;55.71;92299.56;5103042;28;20049;-42
2022/02/07 13:21:15;;;;;;;3.72;2.90;;;;;;;8.26;57.65;92302.94;5102784;28;20027;-41
2022/02/07 13:23:42;;;;;;;6.22;3.10;;;;;;;8.07;58.88;92291.69;5111462;28;20508;-41
2022/02/07 13:26:09;;;;;;;4.22;2.70;;;;;;;7.97;57.96;92293.59;5101986;28;20028;-40
2022/02/07 13:28:38;;;;;;;6.18;2.95;;;;;;;7.95;59.59;92265.94;5103203;28;20543;-41
2022/02/07 13:31:05;;;;;;;;;;;;;;;8.16;60.15;92275.31;5109977;28;20500;-40
2022/02/07 13:33:31;;;;;;;4.72;2.13;;;;;;;8.09;60.35;92267.09;5097748;28;19919;-41
2022/02/07 13:35:58;;;;;;;4.72;2.83;;;;;;;7.81;63.53;92270.22;5099250;28;20023;-41
2022/02/07 13:38:25;;;;;;;6.07;2.80;;;;;;;7.68;64.33;92238.25;5100453;28;20055;-42
2022/02/07 13:40:58;;;;;;;4.90;3.15;;;;;;;7.66;66.01;92257.31;5100075;28;20035;-41
2022/02/07 13:43:26;;;;;;;4.90;2.67;;;;;;;7.49;64.49;92244.22;5104661;28;20028;-41
2022/02/07 13:45:54;;;;;;;29.88;17.42;;;;;;;7.31;67.25;92248.16;5090020;28;20031;-41
2022/02/07 13:48:23;;;;;;;6.82;3.35;;;;;;;7.20;65.96;92234.88;5092509;28;20039;-41
2022/02/07 13:50:50;;;;;;;8.40;4.30;;;;;;;7.21;67.42;92241.81;5098782;28;20016;-41
2022/02/07 13:53:17;;;;;;;8.50;5.60;;;;;;;7.28;64.72;92241.03;5100157;28;20020;-41
2022/02/07 13:55:45;;;;;;;4.95;3.50;;;;;;;7.26;66.15;92234.66;5109850;28;20027;-42
2022/02/07 13:58:18;;;;;;;5.63;3.70;;;;;;;7.33;67.07;92233.88;5104496;28;20019;-41